Mr. Roland — WDG6848 — position and weather

sailwx.info

Track history (hours):
 
Tides and Currents Weather Stations Pressure Air Temp Water Temp Dewpoint Dewpoint Depression Visibility Wind Speed Wind Dir Waves Ship Positions

Mr. Roland

Owner: T. K. TOWING, INC, MORGAN CITY, LA. More information available from US FCC via Universal Licensing System and Coast Guard Vessel Documentation Center.

Last reported at 2018-Jan-31 00:41 UTC. Time now 2018-Feb-21 17:49 UTC.
Position N 29°50' W 091°59'.
Warning: this ship's position is 21 days out of date.

Length 20 m; draft 2 m.

Type: Other ship. MMSI: 367561320.

Date/timePositionNaut miles runAvg speedWind from/ knotsBaromVisibWave heightAir tempDewpointWater temp
2018-Jan-31 00:41N 29°50' W 091°59'5 6.7
2018-Jan-31 00:00N 29°49' W 092°04'4 7.3
2018-Jan-30 23:30N 29°47' W 092°08'2 3.5
2018-Jan-30 23:00N 29°49' W 092°08'3 0.6
2018-Jan-30 18:32N 29°52' W 092°08'0 2.5
2018-Jan-30 18:29N 29°52' W 092°08'1 2.0
2018-Jan-30 17:58N 29°51' W 092°08'1 1.5
2018-Jan-30 17:30N 29°50' W 092°08'1 2.8
2018-Jan-30 17:00N 29°49' W 092°08'1 3.0
2018-Jan-30 16:30N 29°47' W 092°09'2 3.4
2018-Jan-30 16:00N 29°48' W 092°07'2 4.3
2018-Jan-30 15:30N 29°48' W 092°04'2 4.2
2018-Jan-30 15:00N 29°49' W 092°02'64 2.3
2018-Jan-29 11:14N 29°32' W 090°51'2 7.1
2018-Jan-29 11:00N 29°32' W 090°49'3 6.3
2018-Jan-29 10:31N 29°33' W 090°45'2 4.8
2018-Jan-29 10:01N 29°35' W 090°43'3 5.0
2018-Jan-29 09:30N 29°37' W 090°42'3 6.2
2018-Jan-29 09:01N 29°36' W 090°39'3 6.1
2018-Jan-29 08:29N 29°35' W 090°35'3 6.9
2018-Jan-29 08:01N 29°34' W 090°32'4 0.1
2018-Jan-27 18:59N 29°33' W 090°27'2 5.1
2018-Jan-27 18:30N 29°34' W 090°30'3 5.1
2018-Jan-27 18:00N 29°34' W 090°33'2 4.9
2018-Jan-27 17:30N 29°35' W 090°35'2 3.9
2018-Jan-27 17:00N 29°35' W 090°37'1 2.3
2018-Jan-27 16:30N 29°35' W 090°39'2 4.7
2018-Jan-27 16:00N 29°36' W 090°41'2 3.1
2018-Jan-27 15:30N 29°36' W 090°43'2 3.6
2018-Jan-27 15:00N 29°34' W 090°43'1 1.2
2018-Jan-27 14:30N 29°33' W 090°42'1 1.2
2018-Jan-27 14:00N 29°34' W 090°42'0 0.0
2018-Jan-27 13:30N 29°34' W 090°42'0 0.0
2018-Jan-27 13:00N 29°34' W 090°42'0 0.1
2018-Jan-27 12:30N 29°34' W 090°42'0 0.5
2018-Jan-27 12:00N 29°34' W 090°43'0 0.7
2018-Jan-27 11:30N 29°34' W 090°42'0 0.4
2018-Jan-27 11:00N 29°34' W 090°42'0 0.3
2018-Jan-27 10:30N 29°34' W 090°42'0 0.5
2018-Jan-27 10:00N 29°34' W 090°42'0 0.2
2018-Jan-27 09:30N 29°34' W 090°42'1 1.6
2018-Jan-27 09:00N 29°34' W 090°43'3 5.9
2018-Jan-27 08:30N 29°32' W 090°46'3 6.8
2018-Jan-27 08:00N 29°32' W 090°49'3 6.3
2018-Jan-27 07:27N 29°33' W 090°53'  
2018-Jan-22 17:55N 29°32' W 090°51'3 7.3
2018-Jan-22 17:30N 29°32' W 090°47'3 6.2
2018-Jan-22 17:00N 29°34' W 090°44'2 4.2
2018-Jan-22 16:30N 29°33' W 090°42'4 7.4
2018-Jan-22 16:00N 29°29' W 090°43'3 6.3
2018-Jan-22 15:30N 29°26' W 090°43'  
Track history (hours):
 
Tides and Currents Weather Stations Pressure Air Temp Water Temp Dewpoint Dewpoint Depression Visibility Wind Speed Wind Dir Waves Ship Positions

Mr. Roland

Owner: T. K. TOWING, INC, MORGAN CITY, LA. More information available from US FCC via Universal Licensing System and Coast Guard Vessel Documentation Center.

Last reported at 2018-Jan-31 00:41 UTC. Time now 2018-Feb-21 17:49 UTC.
Position N 29°50' W 091°59'.
Warning: this ship's position is 21 days out of date.

Length 20 m; draft 2 m.

Type: Other ship. MMSI: 367561320.

Date/timePositionNaut miles runAvg speedWind from/ knotsBaromVisibWave heightAir tempDewpointWater temp
2018-Jan-31 00:41N 29°50' W 091°59'5 6.7
2018-Jan-31 00:00N 29°49' W 092°04'4 7.3
2018-Jan-30 23:30N 29°47' W 092°08'2 3.5
2018-Jan-30 23:00N 29°49' W 092°08'3 0.6
2018-Jan-30 18:32N 29°52' W 092°08'0 2.5
2018-Jan-30 18:29N 29°52' W 092°08'1 2.0
2018-Jan-30 17:58N 29°51' W 092°08'1 1.5
2018-Jan-30 17:30N 29°50' W 092°08'1 2.8
2018-Jan-30 17:00N 29°49' W 092°08'1 3.0
2018-Jan-30 16:30N 29°47' W 092°09'2 3.4
2018-Jan-30 16:00N 29°48' W 092°07'2 4.3
2018-Jan-30 15:30N 29°48' W 092°04'2 4.2
2018-Jan-30 15:00N 29°49' W 092°02'64 2.3
2018-Jan-29 11:14N 29°32' W 090°51'2 7.1
2018-Jan-29 11:00N 29°32' W 090°49'3 6.3
2018-Jan-29 10:31N 29°33' W 090°45'2 4.8
2018-Jan-29 10:01N 29°35' W 090°43'3 5.0
2018-Jan-29 09:30N 29°37' W 090°42'3 6.2
2018-Jan-29 09:01N 29°36' W 090°39'3 6.1
2018-Jan-29 08:29N 29°35' W 090°35'3 6.9
2018-Jan-29 08:01N 29°34' W 090°32'4 0.1
2018-Jan-27 18:59N 29°33' W 090°27'2 5.1
2018-Jan-27 18:30N 29°34' W 090°30'3 5.1
2018-Jan-27 18:00N 29°34' W 090°33'2 4.9
2018-Jan-27 17:30N 29°35' W 090°35'2 3.9
2018-Jan-27 17:00N 29°35' W 090°37'1 2.3
2018-Jan-27 16:30N 29°35' W 090°39'2 4.7
2018-Jan-27 16:00N 29°36' W 090°41'2 3.1
2018-Jan-27 15:30N 29°36' W 090°43'2 3.6
2018-Jan-27 15:00N 29°34' W 090°43'1 1.2
2018-Jan-27 14:30N 29°33' W 090°42'1 1.2
2018-Jan-27 14:00N 29°34' W 090°42'0 0.0
2018-Jan-27 13:30N 29°34' W 090°42'0 0.0
2018-Jan-27 13:00N 29°34' W 090°42'0 0.1
2018-Jan-27 12:30N 29°34' W 090°42'0 0.5
2018-Jan-27 12:00N 29°34' W 090°43'0 0.7
2018-Jan-27 11:30N 29°34' W 090°42'0 0.4
2018-Jan-27 11:00N 29°34' W 090°42'0 0.3
2018-Jan-27 10:30N 29°34' W 090°42'0 0.5
2018-Jan-27 10:00N 29°34' W 090°42'0 0.2
2018-Jan-27 09:30N 29°34' W 090°42'1 1.6
2018-Jan-27 09:00N 29°34' W 090°43'3 5.9
2018-Jan-27 08:30N 29°32' W 090°46'3 6.8
2018-Jan-27 08:00N 29°32' W 090°49'3 6.3
2018-Jan-27 07:27N 29°33' W 090°53'  
2018-Jan-22 17:55N 29°32' W 090°51'3 7.3
2018-Jan-22 17:30N 29°32' W 090°47'3 6.2
2018-Jan-22 17:00N 29°34' W 090°44'2 4.2
2018-Jan-22 16:30N 29°33' W 090°42'4 7.4
2018-Jan-22 16:00N 29°29' W 090°43'3 6.3
2018-Jan-22 15:30N 29°26' W 090°43'  

Dump ship's entire track history